Time;durP1;ratioP1;P1;durP2;ratioP2;P2;SDS_P1;SDS_P2;PMS_P1;PMS_P2;Temp;Humidity;BMP_temperature;BMP_pressure;BME280_temperature;BME280_humidity;BME280_pressure;Samples;Min_cycle;Max_cycle;Signal;HPM_P1;HPM_P2
2023/10/20 00:04:41;;;;;;;116.30;71.65;;;;;;;;;;10489494;28;20476;-82
2023/10/20 00:09:42;;;;;;;114.93;69.80;;;;;;;;;;10488045;28;20056;-82
2023/10/20 00:14:43;;;;;;;105.33;63.27;;;;;;;;;;10488352;28;20024;-82
2023/10/20 00:19:44;;;;;;;107.18;64.20;;;;;;;;;;10489263;28;20082;-82
2023/10/20 00:24:45;;;;;;;106.47;63.45;;;;;;;;;;10489193;28;20043;-82
2023/10/20 00:29:46;;;;;;;78.60;49.60;;;;;;;;;;10488041;28;20048;-82
2023/10/20 00:34:47;;;;;;;107.63;65.07;;;;;;;;;;10488422;28;20495;-81
2023/10/20 00:39:48;;;;;;;89.03;53.92;;;;;;;;;;10488757;28;20040;-82
2023/10/20 00:44:49;;;;;;;107.03;64.93;;;;;;;;;;10487847;28;20039;-82
2023/10/20 00:49:51;;;;;;;104.20;59.45;;;;;;;;;;10487435;28;20127;-82
2023/10/20 00:54:52;;;;;;;93.75;57.72;;;;;;;;;;10487798;28;20028;-81
2023/10/20 00:59:53;;;;;;;106.40;63.20;;;;;;;;;;10486813;28;20037;-81
2023/10/20 01:04:55;;;;;;;108.25;65.13;;;;;;;;;;10487264;28;20378;-82
2023/10/20 01:09:59;;;;;;;117.70;67.95;;;;;;;;;;10485740;28;20594;-81
2023/10/20 01:15:01;;;;;;;127.32;71.15;;;;;;;;;;10486264;28;20608;-82
2023/10/20 01:20:03;;;;;;;127.10;75.18;;;;;;;;;;10486525;28;20111;-82
2023/10/20 01:25:05;;;;;;;141.32;78.38;;;;;;;;;;10486954;28;20428;-83
2023/10/20 01:30:06;;;;;;;135.70;77.38;;;;;;;;;;10485216;28;20093;-82
2023/10/20 01:35:13;;;;;;;128.40;74.15;;;;;;;;;;10486790;28;20064;-82
2023/10/20 01:40:15;;;;;;;124.32;73.68;;;;;;;;;;10485729;28;20063;-81
2023/10/20 01:45:22;;;;;;;105.63;63.75;;;;;;;;;;10485642;28;20186;-82
2023/10/20 01:50:26;;;;;;;128.80;71.13;;;;;;;;;;10485881;28;20626;-81
2023/10/20 01:55:28;;;;;;;84.90;49.42;;;;;;;;;;10484604;28;20508;-81
2023/10/20 02:00:29;;;;;;;142.38;76.63;;;;;;;;;;10484946;28;20472;-82
2023/10/20 02:05:30;;;;;;;117.15;67.30;;;;;;;;;;10484955;28;20032;-81
2023/10/20 02:10:31;;;;;;;123.20;65.90;;;;;;;;;;10466028;28;20471;-82
2023/10/20 02:15:32;;;;;;;85.47;52.03;;;;;;;;;;10484169;28;20082;-82
2023/10/20 02:20:33;;;;;;;102.28;60.28;;;;;;;;;;10483670;28;20077;-81
2023/10/20 02:25:34;;;;;;;116.00;64.30;;;;;;;;;;10484273;28;20032;-82
2023/10/20 02:30:35;;;;;;;110.45;64.30;;;;;;;;;;10484362;28;20032;-83
2023/10/20 02:35:40;;;;;;;89.95;52.55;;;;;;;;;;10483168;28;20029;-81
2023/10/20 02:40:49;;;;;;;103.97;60.35;;;;;;;;;;10483070;28;20036;-82
2023/10/20 02:45:52;;;;;;;91.10;54.83;;;;;;;;;;10483313;28;20112;-82
2023/10/20 02:50:53;;;;;;;114.57;61.63;;;;;;;;;;10483412;28;20925;-82
2023/10/20 02:55:56;;;;;;;100.68;58.20;;;;;;;;;;10484599;28;20040;-81
2023/10/20 03:00:57;;;;;;;71.90;43.42;;;;;;;;;;10483859;28;20127;-82
2023/10/20 03:05:58;;;;;;;78.60;47.50;;;;;;;;;;10482887;28;20422;-82
2023/10/20 03:10:59;;;;;;;90.55;52.83;;;;;;;;;;10482030;28;20056;-82
2023/10/20 03:16:00;;;;;;;81.57;47.47;;;;;;;;;;10480233;28;20078;-81
2023/10/20 03:21:01;;;;;;;80.03;48.42;;;;;;;;;;10481049;28;20033;-79
2023/10/20 03:26:02;;;;;;;93.05;54.97;;;;;;;;;;10479619;28;20446;-81
2023/10/20 03:31:03;;;;;;;74.85;47.67;;;;;;;;;;10490157;28;20032;-83
2023/10/20 03:36:05;;;;;;;67.38;41.20;;;;;;;;;;10489754;28;20035;-82
2023/10/20 03:41:09;;;;;;;63.65;40.90;;;;;;;;;;10489318;28;20040;-86
2023/10/20 03:46:13;;;;;;;87.40;51.72;;;;;;;;;;10490220;28;20036;-79
2023/10/20 03:51:16;;;;;;;81.32;49.67;;;;;;;;;;10490249;28;20062;-80
2023/10/20 03:56:19;;;;;;;74.95;43.17;;;;;;;;;;10489806;28;20017;-84
2023/10/20 04:01:21;;;;;;;82.63;49.72;;;;;;;;;;10487963;28;20085;-85
2023/10/20 04:06:22;;;;;;;71.43;44.00;;;;;;;;;;10488571;28;20037;-87
2023/10/20 04:11:23;;;;;;;70.13;38.88;;;;;;;;;;10486971;28;20131;-87
2023/10/20 04:16:27;;;;;;;65.53;39.97;;;;;;;;;;10487697;28;20682;-84
2023/10/20 04:21:29;;;;;;;60.42;38.17;;;;;;;;;;10486357;28;20030;-84
2023/10/20 04:26:31;;;;;;;71.03;44.40;;;;;;;;;;10485015;28;20471;-83
2023/10/20 04:47:42;;;;;;;81.75;47.90;;;;;;;;;;10487486;28;20037;-83
2023/10/20 04:52:55;;;;;;;79.32;47.42;;;;;;;;;;10482840;28;20045;-85
2023/10/20 04:58:04;;;;;;;78.47;49.83;;;;;;;;;;10487267;28;20086;-83
2023/10/20 05:13:13;;;;;;;77.15;47.03;;;;;;;;;;10485777;28;20048;-83
2023/10/20 05:18:17;;;;;;;75.00;45.25;;;;;;;;;;10487250;28;20024;-82
2023/10/20 05:23:18;;;;;;;79.63;47.42;;;;;;;;;;10486608;28;20587;-83
2023/10/20 05:28:19;;;;;;;82.72;47.97;;;;;;;;;;10486391;28;20044;-83
2023/10/20 05:33:21;;;;;;;67.13;41.75;;;;;;;;;;10486085;28;20036;-83
2023/10/20 05:38:22;;;;;;;72.63;44.60;;;;;;;;;;10485895;28;20060;-85
2023/10/20 05:43:24;;;;;;;74.30;44.67;;;;;;;;;;10485895;28;20406;-86
2023/10/20 05:48:25;;;;;;;78.78;44.45;;;;;;;;;;10485063;28;20047;-83
2023/10/20 05:53:26;;;;;;;76.32;47.75;;;;;;;;;;10484811;28;20028;-84
2023/10/20 05:58:28;;;;;;;65.13;42.88;;;;;;;;;;10484385;28;20064;-83
2023/10/20 06:03:30;;;;;;;77.80;46.88;;;;;;;;;;10486032;28;20429;-83
2023/10/20 06:08:31;;;;;;;68.85;42.58;;;;;;;;;;10483397;28;20050;-82
2023/10/20 06:13:34;;;;;;;66.65;41.88;;;;;;;;;;10484244;28;20028;-85
2023/10/20 06:18:36;;;;;;;72.47;43.13;;;;;;;;;;10471507;28;20480;-83
2023/10/20 06:23:37;;;;;;;60.13;38.47;;;;;;;;;;10484563;28;20032;-83
2023/10/20 06:28:38;;;;;;;70.70;43.53;;;;;;;;;;10481307;28;20447;-84
2023/10/20 06:33:41;;;;;;;60.95;39.25;;;;;;;;;;10484903;28;20031;-84
2023/10/20 06:43:45;;;;;;;53.97;35.05;;;;;;;;;;10484171;28;20282;-84
2023/10/20 06:48:47;;;;;;;52.20;34.10;;;;;;;;;;10483701;28;20443;-83
2023/10/20 06:53:48;;;;;;;46.05;31.35;;;;;;;;;;10492669;28;20040;-83
2023/10/20 06:58:50;;;;;;;48.15;30.55;;;;;;;;;;10477762;28;20702;-85
2023/10/20 07:03:51;;;;;;;49.58;31.98;;;;;;;;;;10490258;28;20373;-82
2023/10/20 07:08:58;;;;;;;57.58;36.67;;;;;;;;;;10491330;28;20056;-86
2023/10/20 07:13:59;;;;;;;47.05;31.98;;;;;;;;;;10492029;28;20036;-85
2023/10/20 07:19:01;;;;;;;48.95;31.42;;;;;;;;;;10493391;28;20085;-82
2023/10/20 07:24:05;;;;;;;45.28;31.00;;;;;;;;;;10490843;28;20052;-82
2023/10/20 07:29:06;;;;;;;49.28;29.35;;;;;;;;;;10466958;28;20043;-83
2023/10/20 07:34:13;;;;;;;43.10;26.77;;;;;;;;;;10473511;28;20559;-83
2023/10/20 07:39:16;;;;;;;40.08;25.75;;;;;;;;;;10473847;28;20016;-82
2023/10/20 07:44:24;;;;;;;38.92;25.90;;;;;;;;;;10489707;28;20036;-83
2023/10/20 07:49:25;;;;;;;34.55;23.35;;;;;;;;;;10490702;28;20039;-84
2023/10/20 07:54:26;;;;;;;39.15;25.02;;;;;;;;;;10486368;28;20032;-83
2023/10/20 07:59:28;;;;;;;37.05;23.00;;;;;;;;;;10475818;28;20104;-84
2023/10/20 08:04:30;;;;;;;30.17;20.27;;;;;;;;;;10490123;28;20279;-82
2023/10/20 08:09:31;;;;;;;31.25;20.05;;;;;;;;;;10488120;28;20197;-83
2023/10/20 08:14:33;;;;;;;32.67;20.83;;;;;;;;;;10487829;28;20032;-84
2023/10/20 08:19:35;;;;;;;29.13;18.65;;;;;;;;;;10488104;28;20542;-83
2023/10/20 08:24:36;;;;;;;29.42;18.65;;;;;;;;;;10488571;28;20024;-83
2023/10/20 08:29:37;;;;;;;27.60;18.05;;;;;;;;;;10476190;28;20040;-83
2023/10/20 08:34:38;;;;;;;27.67;18.83;;;;;;;;;;10487809;28;20037;-85
2023/10/20 08:39:39;;;;;;;28.05;19.73;;;;;;;;;;10488910;28;20503;-82
2023/10/20 08:44:40;;;;;;;30.77;19.88;;;;;;;;;;10488186;28;20029;-83
2023/10/20 08:49:46;;;;;;;27.67;18.33;;;;;;;;;;10488251;28;20432;-84
2023/10/20 08:54:48;;;;;;;30.33;17.88;;;;;;;;;;10477091;28;20056;-84
2023/10/20 08:59:52;;;;;;;24.35;16.02;;;;;;;;;;10487079;28;20040;-85
2023/10/20 09:04:53;;;;;;;26.20;17.13;;;;;;;;;;10487233;28;20139;-83
2023/10/20 09:09:54;;;;;;;29.15;16.60;;;;;;;;;;10485420;28;20064;-83
2023/10/20 09:14:56;;;;;;;25.80;17.58;;;;;;;;;;10485734;28;20032;-83
2023/10/20 09:20:07;;;;;;;25.52;17.48;;;;;;;;;;10485469;28;20503;-84
2023/10/20 09:25:10;;;;;;;29.00;18.30;;;;;;;;;;10486317;28;20533;-83
2023/10/20 09:30:11;;;;;;;31.13;20.15;;;;;;;;;;10486141;28;20028;-83
2023/10/20 09:35:12;;;;;;;29.63;19.55;;;;;;;;;;10486019;28;20037;-83
2023/10/20 09:40:13;;;;;;;31.30;19.70;;;;;;;;;;10487293;28;20024;-83
2023/10/20 09:45:16;;;;;;;33.33;20.60;;;;;;;;;;10484512;28;20036;-84
2023/10/20 09:50:18;;;;;;;32.22;19.30;;;;;;;;;;10486263;28;20031;-83
2023/10/20 09:55:20;;;;;;;29.48;19.23;;;;;;;;;;10484948;28;21115;-85
2023/10/20 10:00:31;;;;;;;31.75;19.85;;;;;;;;;;10483944;28;20893;-84
2023/10/20 10:05:33;;;;;;;29.45;18.98;;;;;;;;;;10467542;28;20036;-84
2023/10/20 10:10:35;;;;;;;29.15;18.27;;;;;;;;;;10483242;28;20060;-84
2023/10/20 10:15:46;;;;;;;29.15;17.52;;;;;;;;;;10484350;28;20029;-84
2023/10/20 10:20:48;;;;;;;30.58;18.80;;;;;;;;;;10483875;28;20028;-83
2023/10/20 10:25:49;;;;;;;29.08;18.23;;;;;;;;;;10485716;28;20035;-83
2023/10/20 10:30:54;;;;;;;28.67;18.05;;;;;;;;;;10469926;28;20117;-84
2023/10/20 10:36:07;;;;;;;48.67;27.13;;;;;;;;;;10483515;28;20840;-83
2023/10/20 10:41:08;;;;;;;57.45;30.55;;;;;;;;;;10484876;28;20032;-84
2023/10/20 10:46:09;;;;;;;65.30;35.10;;;;;;;;;;10483508;28;20506;-84
2023/10/20 10:51:10;;;;;;;46.17;24.25;;;;;;;;;;10482827;28;20040;-86
2023/10/20 10:56:11;;;;;;;33.45;21.58;;;;;;;;;;10482327;28;20489;-84
2023/10/20 11:01:12;;;;;;;33.58;19.92;;;;;;;;;;10468001;28;20029;-83
2023/10/20 11:06:13;;;;;;;36.17;20.63;;;;;;;;;;10498440;28;20035;-85
2023/10/20 11:11:15;;;;;;;36.03;19.83;;;;;;;;;;10481928;28;20566;-86
2023/10/20 11:16:16;;;;;;;32.20;20.00;;;;;;;;;;10482824;28;20082;-84
2023/10/20 11:21:17;;;;;;;57.80;30.67;;;;;;;;;;10484316;28;20082;-88
2023/10/20 11:26:20;;;;;;;54.85;32.20;;;;;;;;;;10469581;28;20044;-85
2023/10/20 11:31:24;;;;;;;35.20;19.58;;;;;;;;;;10464442;28;20059;-90
2023/10/20 11:36:25;;;;;;;34.47;18.60;;;;;;;;;;10482879;28;20123;-84
2023/10/20 11:41:26;;;;;;;31.88;18.20;;;;;;;;;;10483139;28;20460;-84
2023/10/20 11:46:27;;;;;;;36.60;20.33;;;;;;;;;;10483078;28;20063;-84
2023/10/20 11:51:28;;;;;;;32.00;20.02;;;;;;;;;;10471795;28;20470;-84
2023/10/20 11:56:29;;;;;;;30.10;17.70;;;;;;;;;;10490114;28;20495;-84
2023/10/20 12:01:33;;;;;;;28.60;17.73;;;;;;;;;;10490189;28;20039;-85
2023/10/20 12:06:36;;;;;;;25.67;16.20;;;;;;;;;;10488563;28;20032;-83
2023/10/20 12:11:37;;;;;;;30.63;18.15;;;;;;;;;;10488001;28;20587;-86
2023/10/20 12:16:38;;;;;;;28.63;18.02;;;;;;;;;;10487357;28;20546;-83
2023/10/20 12:21:39;;;;;;;33.70;19.88;;;;;;;;;;10487157;28;20844;-85
2023/10/20 12:26:41;;;;;;;30.92;18.80;;;;;;;;;;10486318;28;20351;-85
2023/10/20 12:31:42;;;;;;;29.83;19.58;;;;;;;;;;10495785;28;20761;-85
2023/10/20 12:36:43;;;;;;;24.65;17.48;;;;;;;;;;10485240;28;20029;-85
2023/10/20 12:41:45;;;;;;;31.60;18.45;;;;;;;;;;10487336;28;20055;-88
2023/10/20 12:46:46;;;;;;;24.15;15.57;;;;;;;;;;10485833;28;20039;-83
2023/10/20 12:51:48;;;;;;;25.58;15.55;;;;;;;;;;10469974;28;20036;-83
2023/10/20 12:56:49;;;;;;;26.00;17.58;;;;;;;;;;10487608;28;20032;-82
2023/10/20 13:01:50;;;;;;;27.67;17.90;;;;;;;;;;10487346;28;20564;-83
2023/10/20 13:06:51;;;;;;;24.88;16.58;;;;;;;;;;10487832;28;20718;-84
2023/10/20 13:11:52;;;;;;;25.13;16.08;;;;;;;;;;10484968;28;20488;-83
2023/10/20 13:16:53;;;;;;;25.23;15.95;;;;;;;;;;10483173;28;20028;-82
2023/10/20 13:21:54;;;;;;;24.52;15.82;;;;;;;;;;10471978;28;20039;-82
2023/10/20 13:26:56;;;;;;;26.90;16.00;;;;;;;;;;10485347;28;20059;-83
2023/10/20 13:32:14;;;;;;;25.92;15.63;;;;;;;;;;10481665;28;20052;-82
2023/10/20 13:37:15;;;;;;;22.88;15.32;;;;;;;;;;10480360;28;20028;-83
2023/10/20 13:42:16;;;;;;;27.42;15.82;;;;;;;;;;10486484;28;20131;-82
2023/10/20 13:47:24;;;;;;;26.60;15.38;;;;;;;;;;10478842;28;20123;-82
2023/10/20 13:52:25;;;;;;;30.17;17.35;;;;;;;;;;10471872;28;20546;-82
2023/10/20 13:57:26;;;;;;;24.83;17.13;;;;;;;;;;10483027;28;20061;-84
2023/10/20 14:02:28;;;;;;;30.92;16.08;;;;;;;;;;10485644;28;20016;-83
2023/10/20 14:07:29;;;;;;;29.33;16.58;;;;;;;;;;10485569;28;20032;-82
2023/10/20 14:12:30;;;;;;;28.05;17.23;;;;;;;;;;10481242;28;20056;-83
2023/10/20 14:17:32;;;;;;;28.98;17.52;;;;;;;;;;10480860;28;20024;-83
2023/10/20 14:22:33;;;;;;;31.02;17.92;;;;;;;;;;10475329;28;20048;-83
2023/10/20 14:27:34;;;;;;;26.85;16.90;;;;;;;;;;10483792;28;20037;-83
2023/10/20 14:32:35;;;;;;;24.95;14.63;;;;;;;;;;10482845;28;20028;-84
2023/10/20 14:37:38;;;;;;;26.73;16.10;;;;;;;;;;10484431;28;20672;-84
2023/10/20 14:42:39;;;;;;;26.02;16.08;;;;;;;;;;10484353;28;20044;-83
2023/10/20 14:47:40;;;;;;;25.92;17.25;;;;;;;;;;10482036;28;20070;-83
2023/10/20 14:52:41;;;;;;;28.00;17.38;;;;;;;;;;10474179;28;20527;-83
2023/10/20 14:57:42;;;;;;;33.42;19.58;;;;;;;;;;10482848;28;20034;-83
2023/10/20 15:02:43;;;;;;;35.83;20.25;;;;;;;;;;10483339;28;20036;-83
2023/10/20 15:07:44;;;;;;;31.90;19.55;;;;;;;;;;10481801;28;20042;-86
2023/10/20 15:12:45;;;;;;;22.80;14.73;;;;;;;;;;10484552;28;20060;-83
2023/10/20 15:17:47;;;;;;;29.67;17.60;;;;;;;;;;10478944;28;20028;-82
2023/10/20 15:22:48;;;;;;;28.58;18.40;;;;;;;;;;10475871;28;20369;-82
2023/10/20 15:27:49;;;;;;;34.60;20.27;;;;;;;;;;10493938;28;20498;-82
2023/10/20 15:32:50;;;;;;;34.67;19.60;;;;;;;;;;10492108;28;20032;-82
2023/10/20 15:37:52;;;;;;;25.48;17.08;;;;;;;;;;10490447;28;20487;-82
2023/10/20 15:42:53;;;;;;;35.08;21.52;;;;;;;;;;10478325;28;20036;-81
2023/10/20 15:47:54;;;;;;;29.90;18.70;;;;;;;;;;10483565;28;20036;-81
2023/10/20 15:52:55;;;;;;;24.45;14.80;;;;;;;;;;10489765;28;20032;-82
2023/10/20 15:57:56;;;;;;;26.23;18.30;;;;;;;;;;10489744;28;20036;-81
2023/10/20 16:02:57;;;;;;;26.00;16.95;;;;;;;;;;10501060;28;20637;-83
2023/10/20 16:07:58;;;;;;;33.83;19.55;;;;;;;;;;10489115;28;20658;-82
2023/10/20 16:12:59;;;;;;;40.40;23.98;;;;;;;;;;10485470;28;20056;-81
2023/10/20 16:18:00;;;;;;;40.28;23.38;;;;;;;;;;10487255;28;20032;-81
2023/10/20 16:23:02;;;;;;;59.55;32.67;;;;;;;;;;10488803;28;20043;-85
2023/10/20 16:28:04;;;;;;;91.05;47.92;;;;;;;;;;10487329;28;20033;-82
2023/10/20 16:33:05;;;;;;;81.72;47.38;;;;;;;;;;10488291;28;20055;-81
2023/10/20 16:38:07;;;;;;;103.57;58.20;;;;;;;;;;10487735;28;20037;-82
2023/10/20 16:43:08;;;;;;;102.63;53.75;;;;;;;;;;10486238;28;20041;-83
2023/10/20 16:48:09;;;;;;;78.20;46.03;;;;;;;;;;10488385;28;20064;-83
2023/10/20 16:53:11;;;;;;;78.75;43.33;;;;;;;;;;10486451;28;20484;-80
2023/10/20 16:58:12;;;;;;;71.60;37.83;;;;;;;;;;10488295;28;20027;-82
2023/10/20 17:03:13;;;;;;;77.25;42.03;;;;;;;;;;10487245;28;20370;-82
2023/10/20 17:08:14;;;;;;;76.95;40.25;;;;;;;;;;10486960;28;20086;-82
2023/10/20 17:13:15;;;;;;;57.55;32.13;;;;;;;;;;10485495;28;20064;-81
2023/10/20 17:18:16;;;;;;;47.30;27.55;;;;;;;;;;10482055;28;20621;-81
2023/10/20 17:23:17;;;;;;;58.00;30.88;;;;;;;;;;10484883;28;20036;-82
2023/10/20 17:28:18;;;;;;;48.03;27.38;;;;;;;;;;10489607;28;20047;-82
2023/10/20 17:33:19;;;;;;;45.22;25.35;;;;;;;;;;10486382;28;20039;-81
2023/10/20 17:38:20;;;;;;;43.88;22.73;;;;;;;;;;10486424;28;20078;-83
2023/10/20 17:43:21;;;;;;;43.42;20.27;;;;;;;;;;10485178;28;20028;-82
2023/10/20 17:48:23;;;;;;;46.80;23.45;;;;;;;;;;10464046;28;20044;-82
2023/10/20 17:53:24;;;;;;;44.78;26.77;;;;;;;;;;10480147;28;20025;-83
2023/10/20 17:58:25;;;;;;;39.05;23.85;;;;;;;;;;10480712;28;20452;-83
2023/10/20 18:03:26;;;;;;;52.17;28.10;;;;;;;;;;10482507;28;20036;-82
2023/10/20 18:08:27;;;;;;;47.95;24.75;;;;;;;;;;10482011;28;20044;-81
2023/10/20 18:13:28;;;;;;;43.88;23.55;;;;;;;;;;10472693;28;20052;-82
2023/10/20 18:18:32;;;;;;;43.05;22.20;;;;;;;;;;10465324;28;20535;-82
2023/10/20 18:23:35;;;;;;;44.22;25.55;;;;;;;;;;10479757;28;20029;-82
2023/10/20 18:28:37;;;;;;;48.78;26.00;;;;;;;;;;10482238;28;20526;-82
2023/10/20 18:33:38;;;;;;;60.45;31.27;;;;;;;;;;10473802;28;20091;-82
2023/10/20 18:38:39;;;;;;;56.88;30.85;;;;;;;;;;10482339;28;20044;-85
2023/10/20 18:43:40;;;;;;;60.33;29.77;;;;;;;;;;10480576;28;20024;-82
2023/10/20 18:48:41;;;;;;;58.22;30.02;;;;;;;;;;10479824;28;20044;-82
2023/10/20 18:53:42;;;;;;;60.08;29.65;;;;;;;;;;10483336;28;20039;-83
2023/10/20 18:58:43;;;;;;;45.20;24.60;;;;;;;;;;10486887;28;20036;-80
2023/10/20 19:03:44;;;;;;;51.90;28.70;;;;;;;;;;10489008;28;20395;-83
2023/10/20 19:08:45;;;;;;;49.35;28.50;;;;;;;;;;10490966;28;20040;-83
2023/10/20 19:13:46;;;;;;;55.13;30.02;;;;;;;;;;10490210;28;20064;-82
2023/10/20 19:18:47;;;;;;;50.08;28.38;;;;;;;;;;10483130;28;20695;-81
2023/10/20 19:23:48;;;;;;;55.35;29.02;;;;;;;;;;10480912;28;20043;-85
2023/10/20 19:28:50;;;;;;;50.53;24.45;;;;;;;;;;10487081;28;20600;-82
2023/10/20 19:33:58;;;;;;;38.17;20.63;;;;;;;;;;10486834;28;20463;-83
2023/10/20 19:38:59;;;;;;;38.13;20.35;;;;;;;;;;10488063;28;20028;-84
2023/10/20 19:44:07;;;;;;;43.05;20.92;;;;;;;;;;10485899;28;20024;-83
2023/10/20 19:49:08;;;;;;;44.13;20.70;;;;;;;;;;10488091;28;20028;-82
2023/10/20 19:54:09;;;;;;;40.88;21.42;;;;;;;;;;10489717;28;20047;-82
2023/10/20 19:59:10;;;;;;;49.30;23.13;;;;;;;;;;10490124;28;20036;-84
2023/10/20 20:04:11;;;;;;;44.33;25.05;;;;;;;;;;10489390;28;20032;-82
2023/10/20 20:09:26;;;;;;;83.75;44.40;;;;;;;;;;10469759;28;20049;-83
2023/10/20 20:14:27;;;;;;;78.82;35.55;;;;;;;;;;10486767;28;20415;-81
2023/10/20 20:19:28;;;;;;;55.30;27.35;;;;;;;;;;10488593;28;20029;-82
2023/10/20 20:24:29;;;;;;;44.38;22.17;;;;;;;;;;10488632;28;20067;-83
2023/10/20 20:29:29;;;;;;;37.90;20.48;;;;;;;;;;10488274;28;20128;-82
2023/10/20 20:34:30;;;;;;;39.92;19.48;;;;;;;;;;10487777;28;20033;-82
2023/10/20 20:39:31;;;;;;;30.55;15.95;;;;;;;;;;10487658;28;20024;-82
2023/10/20 20:44:36;;;;;;;27.23;15.80;;;;;;;;;;10470512;28;20434;-81
2023/10/20 20:49:37;;;;;;;32.05;15.43;;;;;;;;;;10487272;28;20124;-81
2023/10/20 20:54:38;;;;;;;39.30;19.23;;;;;;;;;;10486285;28;20039;-82
2023/10/20 20:59:39;;;;;;;41.28;17.85;;;;;;;;;;10487886;28;20158;-82
2023/10/20 21:04:42;;;;;;;37.50;17.27;;;;;;;;;;10468318;28;20044;-81
2023/10/20 21:09:50;;;;;;;34.50;16.02;;;;;;;;;;10487094;28;20041;-82
2023/10/20 21:14:51;;;;;;;38.25;17.38;;;;;;;;;;10484417;28;20423;-82
2023/10/20 21:19:52;;;;;;;37.65;17.77;;;;;;;;;;10486306;28;20036;-81
2023/10/20 21:24:59;;;;;;;38.95;19.65;;;;;;;;;;10486120;28;20035;-82
2023/10/20 21:30:00;;;;;;;37.38;16.55;;;;;;;;;;10484015;28;20063;-82
2023/10/20 21:35:01;;;;;;;33.50;15.68;;;;;;;;;;10485377;28;20029;-81
2023/10/20 21:40:02;;;;;;;31.85;14.43;;;;;;;;;;10485535;28;20484;-84
2023/10/20 21:45:03;;;;;;;31.20;14.43;;;;;;;;;;10486069;28;20652;-82
2023/10/20 21:50:05;;;;;;;33.85;15.90;;;;;;;;;;10485602;28;20656;-81
2023/10/20 21:55:06;;;;;;;34.20;15.77;;;;;;;;;;10483441;28;20032;-81
2023/10/20 22:00:16;;;;;;;35.17;16.35;;;;;;;;;;10484631;28;20032;-82
2023/10/20 22:05:18;;;;;;;33.03;15.75;;;;;;;;;;10476488;28;20050;-81
2023/10/20 22:10:19;;;;;;;33.60;16.67;;;;;;;;;;10482717;28;20051;-83
2023/10/20 22:15:20;;;;;;;35.88;15.52;;;;;;;;;;10483214;28;20059;-82
2023/10/20 22:20:21;;;;;;;40.10;16.77;;;;;;;;;;10484294;28;20127;-82
2023/10/20 22:25:22;;;;;;;33.95;15.10;;;;;;;;;;10484043;28;20047;-83
2023/10/20 22:30:24;;;;;;;31.98;14.02;;;;;;;;;;10475649;28;20086;-81
2023/10/20 22:35:25;;;;;;;33.30;14.50;;;;;;;;;;10484131;28;20024;-83
2023/10/20 22:40:26;;;;;;;37.33;15.18;;;;;;;;;;10484125;28;20032;-82
2023/10/20 22:45:27;;;;;;;37.05;19.08;;;;;;;;;;10465649;28;20036;-81
2023/10/20 22:50:28;;;;;;;36.53;15.13;;;;;;;;;;10478037;28;20386;-82
2023/10/20 22:55:29;;;;;;;33.47;14.38;;;;;;;;;;10482127;28;20032;-82
2023/10/20 23:00:30;;;;;;;33.47;13.13;;;;;;;;;;10483953;28;20722;-82
2023/10/20 23:05:31;;;;;;;33.45;14.52;;;;;;;;;;10483461;28;20082;-81
2023/10/20 23:10:32;;;;;;;34.92;14.23;;;;;;;;;;10482647;28;20707;-81
2023/10/20 23:15:40;;;;;;;33.75;15.60;;;;;;;;;;10483051;28;20073;-81
2023/10/20 23:20:42;;;;;;;36.22;14.55;;;;;;;;;;10483935;28;20028;-82
2023/10/20 23:25:43;;;;;;;29.15;13.73;;;;;;;;;;10482876;28;20540;-82
2023/10/20 23:30:44;;;;;;;31.08;13.07;;;;;;;;;;10482392;28;20036;-83
2023/10/20 23:35:47;;;;;;;29.42;14.02;;;;;;;;;;10482839;28;20627;-82
2023/10/20 23:40:49;;;;;;;30.77;14.40;;;;;;;;;;10483057;28;20044;-83
2023/10/20 23:45:50;;;;;;;30.40;13.85;;;;;;;;;;10488500;28;20029;-81
2023/10/20 23:50:51;;;;;;;36.88;14.05;;;;;;;;;;10490333;28;20033;-84
2023/10/20 23:55:52;;;;;;;44.97;14.93;;;;;;;;;;10489626;28;20472;-82
